createdAt,value
2019-01-26T00:00:37.923Z,85.37
2019-01-26T00:03:08.379Z,87.20
2019-01-26T00:05:38.273Z,86.93
2019-01-26T00:08:09.203Z,83.03
2019-01-26T00:10:39.324Z,83.70
2019-01-26T00:13:09.257Z,85.50
2019-01-26T00:15:39.305Z,86.00
2019-01-26T00:18:09.374Z,78.37
2019-01-26T00:20:39.702Z,83.77
2019-01-26T00:23:09.414Z,82.00
2019-01-26T00:25:39.725Z,89.97
2019-01-26T00:28:09.641Z,82.67
2019-01-26T00:30:39.862Z,88.77
2019-01-26T00:33:10.507Z,94.60
2019-01-26T00:35:40.712Z,104.47
2019-01-26T00:38:11.757Z,86.67
2019-01-26T00:40:42.694Z,84.03
2019-01-26T00:43:12.400Z,82.43
2019-01-26T00:45:42.829Z,86.00
2019-01-26T00:48:14.692Z,82.00
2019-01-26T00:50:45.010Z,81.83
2019-01-26T00:53:15.233Z,76.93
2019-01-26T00:55:45.658Z,83.60
2019-01-26T00:58:16.184Z,81.07
2019-01-26T01:00:50.199Z,82.33
2019-01-26T01:03:21.649Z,77.40
2019-01-26T01:05:52.692Z,87.03
2019-01-26T01:08:24.761Z,71.73
2019-01-26T01:10:57.746Z,72.67
2019-01-26T01:13:28.782Z,83.27
2019-01-26T01:16:17.633Z,71.67
2019-01-26T01:18:47.662Z,72.97
2019-01-26T01:21:17.463Z,74.57
2019-01-26T01:23:47.481Z,71.70
2019-01-26T01:26:17.295Z,79.00
2019-01-26T01:28:47.083Z,76.67
2019-01-26T01:31:17.021Z,78.73
2019-01-26T01:33:46.726Z,77.83
2019-01-26T01:36:16.336Z,75.97
2019-01-26T01:38:46.452Z,75.10
2019-01-26T01:41:16.480Z,76.30
2019-01-26T01:43:46.178Z,80.37
2019-01-26T01:46:16.707Z,82.63
2019-01-26T01:48:46.211Z,79.23
2019-01-26T01:51:16.231Z,80.57
2019-01-26T01:53:46.243Z,78.33
2019-01-26T01:56:16.088Z,93.80
2019-01-26T01:58:45.661Z,93.77
2019-01-26T02:01:15.993Z,94.83
2019-01-26T02:03:46.326Z,78.00
2019-01-26T02:06:16.445Z,88.13
2019-01-26T02:08:46.345Z,78.67
2019-01-26T02:11:16.464Z,80.40
2019-01-26T02:13:46.286Z,85.97
2019-01-26T02:16:16.094Z,78.13
2019-01-26T02:18:46.209Z,79.90
2019-01-26T02:21:16.843Z,72.20
2019-01-26T02:23:47.080Z,81.47
2019-01-26T02:26:16.886Z,79.40
2019-01-26T02:28:46.794Z,80.53
2019-01-26T02:31:16.707Z,87.43
2019-01-26T02:33:46.512Z,83.47
2019-01-26T02:36:16.451Z,85.20
2019-01-26T02:38:46.352Z,87.07
2019-01-26T02:41:16.367Z,83.30
2019-01-26T02:43:46.795Z,88.53
2019-01-26T02:46:16.613Z,84.13
2019-01-26T02:48:46.402Z,84.93
2019-01-26T02:51:16.837Z,80.20
2019-01-26T02:53:47.076Z,80.57
2019-01-26T02:56:17.395Z,83.17
2019-01-26T02:58:48.238Z,79.33
2019-01-26T03:01:18.866Z,87.10
2019-01-26T03:03:50.608Z,79.17
2019-01-26T03:06:20.843Z,81.10
2019-01-26T03:09:09.993Z,83.93
2019-01-26T03:11:40.824Z,85.63
2019-01-26T03:14:10.852Z,81.37
2019-01-26T03:16:40.862Z,80.90
2019-01-26T03:19:11.166Z,88.03
2019-01-26T03:21:40.996Z,88.03
2019-01-26T03:24:11.512Z,85.20
2019-01-26T03:26:41.653Z,87.07
2019-01-26T03:29:11.866Z,80.97
2019-01-26T03:31:41.985Z,82.23
2019-01-26T03:34:11.896Z,86.47
2019-01-26T03:36:42.027Z,81.70
2019-01-26T03:39:11.933Z,90.63
2019-01-26T03:41:41.853Z,89.60
2019-01-26T03:44:11.762Z,87.80
2019-01-26T03:46:41.659Z,82.57
2019-01-26T03:49:11.675Z,87.50
2019-01-26T03:51:42.015Z,86.67
2019-01-26T03:54:12.746Z,81.47
2019-01-26T03:56:43.486Z,82.00
2019-01-26T03:59:13.503Z,78.67
2019-01-26T04:01:45.140Z,82.17
2019-01-26T04:04:15.768Z,81.57
2019-01-26T04:06:46.926Z,84.63
2019-01-26T04:09:18.383Z,82.40
2019-01-26T04:11:49.944Z,84.27
2019-01-26T04:14:20.470Z,78.20
2019-01-26T04:16:50.787Z,82.93
2019-01-26T04:19:20.906Z,86.00
2019-01-26T04:21:51.094Z,87.07
2019-01-26T04:24:21.249Z,79.33
2019-01-26T04:26:51.263Z,87.00
2019-01-26T04:29:21.379Z,83.03
2019-01-26T04:31:51.379Z,87.17
2019-01-26T04:34:40.256Z,81.20
2019-01-26T04:37:10.255Z,78.57
2019-01-26T04:39:40.287Z,81.63
2019-01-26T04:42:10.415Z,76.37
2019-01-26T04:44:40.429Z,79.57
2019-01-26T04:47:10.443Z,72.43
2019-01-26T04:49:40.436Z,76.93
2019-01-26T04:52:10.767Z,70.10
2019-01-26T04:54:40.795Z,76.03
2019-01-26T04:57:10.685Z,78.00
2019-01-26T04:59:40.706Z,75.27
2019-01-26T05:02:10.517Z,75.33
2019-01-26T05:04:40.635Z,72.97
2019-01-26T05:07:10.648Z,63.73
2019-01-26T05:09:40.673Z,75.13
2019-01-26T05:12:10.686Z,64.73
2019-01-26T05:14:40.496Z,61.97
2019-01-26T05:17:10.407Z,65.57
2019-01-26T05:19:40.630Z,65.90
2019-01-26T05:22:10.439Z,68.77
2019-01-26T05:24:40.468Z,72.07
2019-01-26T05:27:10.275Z,67.47
2019-01-26T05:29:39.782Z,75.30
2019-01-26T05:32:09.688Z,79.20
2019-01-26T05:34:40.115Z,68.60
2019-01-26T05:37:10.082Z,70.80
2019-01-26T05:39:40.349Z,75.97
2019-01-26T05:42:10.262Z,64.93
2019-01-26T05:44:39.872Z,65.03
2019-01-26T05:47:09.685Z,69.10
2019-01-26T05:49:39.493Z,68.57
2019-01-26T05:52:09.837Z,64.40
2019-01-26T05:54:39.740Z,65.83
2019-01-26T05:57:09.876Z,67.03
2019-01-26T05:59:39.673Z,64.60
2019-01-26T06:02:09.679Z,74.07
2019-01-26T06:04:40.206Z,67.53
2019-01-26T06:07:11.477Z,63.43
2019-01-26T06:09:42.296Z,66.07
2019-01-26T06:12:12.818Z,59.63
2019-01-26T06:14:42.735Z,64.30
2019-01-26T06:17:12.757Z,61.57
2019-01-26T06:19:43.381Z,65.43
2019-01-26T06:22:13.597Z,64.07
2019-01-26T06:24:43.835Z,63.37
2019-01-26T06:27:13.855Z,63.17
2019-01-26T06:29:44.774Z,65.33
2019-01-26T06:32:14.791Z,55.87
2019-01-26T06:34:45.423Z,62.97
2019-01-26T06:37:15.743Z,57.27
2019-01-26T06:39:46.295Z,68.37
2019-01-26T06:42:15.896Z,62.53
2019-01-26T06:44:46.104Z,61.37
2019-01-26T06:47:16.018Z,64.17
2019-01-26T06:49:46.040Z,59.27
2019-01-26T06:52:16.672Z,60.37
2019-01-26T06:54:46.481Z,59.87
2019-01-26T06:57:16.396Z,54.63
2019-01-26T06:59:46.301Z,59.13
2019-01-26T07:02:16.236Z,68.37
2019-01-26T07:04:57.187Z,57.87
2019-01-26T07:07:27.316Z,66.20
2019-01-26T07:09:57.531Z,60.13
2019-01-26T07:12:27.752Z,59.10
2019-01-26T07:14:58.798Z,60.20
2019-01-26T07:17:31.877Z,64.50
2019-01-26T07:20:02.510Z,61.83
2019-01-26T07:22:37.544Z,64.50
2019-01-26T07:25:08.607Z,66.57
2019-01-26T07:27:38.619Z,70.53
2019-01-26T07:30:10.359Z,68.93
2019-01-26T07:32:39.765Z,60.70
2019-01-26T07:35:09.776Z,65.00
2019-01-26T07:37:40.090Z,67.10
2019-01-26T07:40:11.964Z,70.53
2019-01-26T07:42:41.777Z,64.67
2019-01-26T07:45:11.788Z,63.53
2019-01-26T07:47:41.809Z,65.30
2019-01-26T07:50:13.515Z,64.00
2019-01-26T07:52:44.300Z,67.80
2019-01-26T07:55:15.642Z,65.27
2019-01-26T07:57:46.272Z,69.50
2019-01-26T08:00:21.213Z,71.87
2019-01-26T08:02:51.228Z,68.57
2019-01-26T08:05:21.443Z,82.80
2019-01-26T08:07:51.789Z,66.77
2019-01-26T08:10:22.719Z,67.20
2019-01-26T08:12:55.088Z,72.17
2019-01-26T08:15:26.859Z,69.70
2019-01-26T08:17:56.850Z,68.43
2019-01-26T08:20:27.731Z,74.93
2019-01-26T08:22:58.532Z,78.33
2019-01-26T08:25:30.481Z,60.40
2019-01-26T08:28:01.650Z,74.63
2019-01-26T08:30:31.743Z,72.53
2019-01-26T08:33:04.733Z,73.80
2019-01-26T08:35:38.539Z,81.17
2019-01-26T08:38:08.988Z,68.67
2019-01-26T08:40:40.313Z,77.93
2019-01-26T08:43:10.111Z,76.27
2019-01-26T08:45:40.366Z,82.03
2019-01-26T08:48:10.886Z,80.43
2019-01-26T08:50:41.506Z,86.37
2019-01-26T08:53:11.846Z,81.37
2019-01-26T08:55:42.367Z,83.37
2019-01-26T08:58:12.796Z,78.53
2019-01-26T09:00:43.435Z,84.33
2019-01-26T09:03:20.515Z,78.27
2019-01-26T09:06:09.888Z,73.60
2019-01-26T09:08:40.504Z,82.47
2019-01-26T09:11:11.119Z,78.20
2019-01-26T09:13:48.945Z,80.97
2019-01-26T09:16:19.474Z,79.43
2019-01-26T09:18:50.205Z,77.50
2019-01-26T09:21:20.831Z,74.23
2019-01-26T09:23:51.085Z,83.07
2019-01-26T09:26:21.792Z,82.80
2019-01-26T09:28:53.751Z,82.93
2019-01-26T09:31:24.276Z,80.03
2019-01-26T09:33:54.695Z,74.80
2019-01-26T09:36:25.419Z,75.73
2019-01-26T09:39:00.373Z,94.27
2019-01-26T09:41:31.388Z,78.33
2019-01-26T09:44:01.721Z,76.70
2019-01-26T09:46:32.794Z,70.50
2019-01-26T09:49:10.754Z,68.37
2019-01-26T09:51:46.015Z,79.57
2019-01-26T09:54:32.815Z,65.37
2019-01-26T09:57:22.601Z,72.40
2019-01-26T09:59:53.854Z,68.80
2019-01-26T10:02:36.963Z,72.23
2019-01-26T10:05:27.729Z,75.53
2019-01-26T10:07:58.597Z,62.40
2019-01-26T10:10:29.337Z,79.57
2019-01-26T10:13:00.273Z,83.27
2019-01-26T10:15:32.264Z,72.23
2019-01-26T10:18:04.713Z,73.87
2019-01-26T10:20:36.463Z,77.27
2019-01-26T10:23:07.837Z,81.37
2019-01-26T10:25:39.896Z,66.70
2019-01-26T10:28:12.375Z,70.13
2019-01-26T10:30:56.724Z,67.67
2019-01-26T10:33:27.857Z,68.17
2019-01-26T10:36:18.855Z,69.03
2019-01-26T10:39:14.091Z,67.23
2019-01-26T10:41:55.335Z,65.23
2019-01-26T10:44:34.263Z,68.97
2019-01-26T10:47:05.923Z,62.27
2019-01-26T10:49:36.154Z,61.67
2019-01-26T10:52:06.760Z,66.47
2019-01-26T10:54:37.604Z,64.03
2019-01-26T10:57:21.656Z,60.93
2019-01-26T10:59:52.383Z,63.53
2019-01-26T11:02:22.297Z,69.30
2019-01-26T11:04:53.345Z,61.97
2019-01-26T11:07:24.484Z,72.57
2019-01-26T11:09:54.498Z,57.73
2019-01-26T11:12:25.115Z,60.53
2019-01-26T11:14:55.875Z,60.90
2019-01-26T11:17:26.003Z,62.90
2019-01-26T11:19:56.323Z,61.83
2019-01-26T11:22:26.643Z,71.23
2019-01-26T11:24:57.087Z,63.90
2019-01-26T11:27:27.084Z,62.50
2019-01-26T11:29:57.755Z,67.57
2019-01-26T11:32:27.955Z,64.70
2019-01-26T11:34:59.910Z,65.33
2019-01-26T11:37:31.867Z,60.40
2019-01-26T11:40:15.515Z,56.77
2019-01-26T11:42:46.843Z,72.60
2019-01-26T11:45:38.684Z,64.93
2019-01-26T11:48:19.055Z,62.37
2019-01-26T11:50:55.003Z,64.60
2019-01-26T11:53:27.467Z,70.20
2019-01-26T11:56:10.916Z,65.47
2019-01-26T11:58:49.403Z,59.70
2019-01-26T12:01:32.443Z,60.93
2019-01-26T12:04:16.875Z,63.33
2019-01-26T12:06:56.518Z,62.80
2019-01-26T12:10:19.163Z,64.33
2019-01-26T12:12:04.688Z,67.80
2019-01-26T12:14:37.114Z,51.70
2019-01-26T12:17:07.955Z,61.67
2019-01-26T12:19:39.500Z,56.10
2019-01-26T12:22:11.882Z,65.07
2019-01-26T12:24:44.675Z,63.50
2019-01-26T12:27:18.083Z,65.40
2019-01-26T12:29:54.019Z,69.40
2019-01-26T12:54:20.403Z,68.70
2019-01-26T12:57:20.955Z,72.60
2019-01-26T13:00:30.365Z,64.07
2019-01-26T13:49:54.036Z,72.10
2019-01-26T13:52:24.363Z,71.37
2019-01-26T13:54:55.491Z,80.00
2019-01-26T13:57:25.716Z,72.27
2019-01-26T13:59:55.755Z,77.80
2019-01-26T14:02:25.631Z,75.70
2019-01-26T14:04:55.445Z,76.70
2019-01-26T14:07:25.872Z,77.60
2019-01-26T14:09:55.987Z,79.83
2019-01-26T14:12:32.053Z,77.87
2019-01-26T14:15:04.219Z,75.47
2019-01-26T14:17:35.356Z,71.97
2019-01-26T14:20:07.844Z,70.83
2019-01-26T14:22:39.433Z,68.87
2019-01-26T14:25:10.875Z,76.30
2019-01-26T14:27:41.483Z,78.37
2019-01-26T14:30:36.982Z,75.13
2019-01-26T14:33:08.315Z,92.83
2019-01-26T14:35:39.196Z,88.03
2019-01-26T14:38:11.020Z,118.77
2019-01-26T14:40:41.564Z,114.40
2019-01-26T14:43:11.884Z,125.07
2019-01-26T14:45:42.356Z,116.57
2019-01-26T14:51:26.886Z,114.17
2019-01-26T14:53:57.830Z,109.20
2019-01-26T14:56:32.047Z,108.03
2019-01-26T14:59:02.490Z,121.30
2019-01-26T15:01:33.126Z,109.93
2019-01-26T15:04:10.734Z,98.63
2019-01-26T15:06:44.127Z,96.50
2019-01-26T15:09:14.193Z,113.20
2019-01-26T15:11:45.133Z,118.37
2019-01-26T15:14:15.894Z,109.30
2019-01-26T15:16:46.711Z,93.07
2019-01-26T15:19:16.622Z,98.43
2019-01-26T15:21:46.766Z,87.50
2019-01-26T15:24:16.559Z,100.33
2019-01-26T15:26:46.903Z,99.27
2019-01-26T15:29:16.995Z,91.07
2019-01-26T15:31:47.326Z,89.63
2019-01-26T15:34:19.375Z,92.77
2019-01-26T15:36:49.903Z,96.60
2019-01-26T15:39:20.452Z,89.63
2019-01-26T15:41:50.768Z,85.40
2019-01-26T15:44:20.895Z,81.60
2019-01-26T15:46:50.694Z,82.20
2019-01-26T15:49:21.119Z,91.20
2019-01-26T15:51:52.046Z,77.70
2019-01-26T15:54:21.758Z,88.13
2019-01-26T15:56:53.926Z,81.70
2019-01-26T15:59:23.847Z,75.60
2019-01-26T16:01:54.288Z,72.93
2019-01-26T16:04:24.930Z,74.27
2019-01-26T16:07:15.711Z,77.60
2019-01-26T16:09:46.446Z,73.63
2019-01-26T16:12:16.487Z,71.40
2019-01-26T16:14:46.678Z,69.07
2019-01-26T16:17:17.006Z,66.50
2019-01-26T16:19:48.766Z,74.73
2019-01-26T16:22:23.143Z,69.43
2019-01-26T16:24:54.430Z,66.93
2019-01-26T16:27:25.354Z,65.80
2019-01-26T16:29:57.432Z,83.60
2019-01-26T16:32:31.931Z,57.87
2019-01-26T16:35:04.839Z,67.77
2019-01-26T16:37:44.081Z,76.20
2019-01-26T16:40:44.921Z,76.47
2019-01-26T16:43:35.995Z,80.80
2019-01-26T16:46:45.929Z,86.43
2019-01-26T16:49:04.933Z,77.00
2019-01-26T16:51:47.564Z,85.30
2019-01-26T16:54:26.818Z,90.10
2019-01-26T16:57:03.639Z,80.93
2019-01-26T16:59:34.926Z,96.70
2019-01-26T17:02:09.023Z,94.13
2019-01-26T17:04:42.940Z,95.50
2019-01-26T17:07:14.859Z,88.50
2019-01-26T17:09:54.368Z,98.33
2019-01-26T17:12:46.342Z,96.87
2019-01-26T17:15:25.673Z,93.33
2019-01-26T17:17:58.790Z,95.87
2019-01-26T17:21:12.194Z,99.63
2019-01-26T17:24:19.474Z,103.67
2019-01-26T17:30:43.827Z,101.27
2019-01-26T17:33:37.078Z,95.33
2019-01-26T17:36:34.319Z,101.40
2019-01-26T17:39:17.641Z,100.83
2019-01-26T17:42:14.074Z,105.37
2019-01-26T17:44:44.310Z,89.13
2019-01-26T17:47:14.813Z,100.20
2019-01-26T17:49:45.126Z,106.23
2019-01-26T17:52:15.486Z,109.67
2019-01-26T17:54:54.926Z,104.77
2019-01-26T17:57:31.606Z,90.03
2019-01-26T18:00:02.941Z,88.50
2019-01-26T18:02:39.413Z,94.10
2019-01-26T18:05:11.248Z,97.30
2019-01-26T18:07:41.693Z,87.10
2019-01-26T18:10:13.641Z,88.50
2019-01-26T18:12:43.774Z,80.67
2019-01-26T18:15:14.616Z,87.17
2019-01-26T18:17:45.433Z,80.53
2019-01-26T18:20:17.727Z,80.73
2019-01-26T18:22:48.567Z,70.23
2019-01-26T18:25:18.767Z,70.70
2019-01-26T18:27:49.502Z,72.87
2019-01-26T18:30:21.768Z,72.83
2019-01-26T18:32:53.775Z,72.47
2019-01-26T18:35:24.254Z,70.73
2019-01-26T18:37:58.694Z,67.37
2019-01-26T18:40:28.673Z,70.87
2019-01-26T18:43:15.210Z,73.30
2019-01-26T18:45:46.333Z,87.73
2019-01-26T18:48:16.606Z,82.30
2019-01-26T18:50:48.087Z,80.03
2019-01-26T18:53:18.741Z,72.40
2019-01-26T18:55:49.399Z,79.87
2019-01-26T18:58:19.712Z,73.90
2019-01-26T19:00:50.858Z,68.30
2019-01-26T19:03:30.382Z,80.67
2019-01-26T19:06:00.814Z,76.03
2019-01-26T19:08:34.413Z,74.07
2019-01-26T19:11:10.453Z,74.63
2019-01-26T19:13:45.801Z,72.17
2019-01-26T19:16:27.904Z,83.20
2019-01-26T19:18:58.567Z,84.63
2019-01-26T19:21:28.679Z,82.20
2019-01-26T19:24:02.486Z,85.57
2019-01-26T19:26:32.406Z,81.60
2019-01-26T19:29:02.486Z,78.63
2019-01-26T19:31:33.013Z,85.80
2019-01-26T19:34:03.453Z,86.23
2019-01-26T19:36:33.766Z,102.70
2019-01-26T19:39:06.486Z,82.10
2019-01-26T19:41:36.973Z,80.10
2019-01-26T19:44:08.448Z,77.57
2019-01-26T19:46:39.573Z,87.80
2019-01-26T19:49:10.116Z,73.03
2019-01-26T19:51:40.127Z,74.23
2019-01-26T19:54:10.359Z,70.17
2019-01-26T19:56:41.368Z,69.27
2019-01-26T19:59:11.693Z,81.23
2019-01-26T20:01:42.766Z,73.17
2019-01-26T20:04:12.886Z,77.43
2019-01-26T20:06:43.073Z,106.10
2019-01-26T20:09:13.613Z,109.50
2019-01-26T20:11:43.846Z,104.83
2019-01-26T20:14:14.366Z,101.20
2019-01-26T20:16:44.473Z,107.80
2019-01-26T20:19:15.213Z,101.50
2019-01-26T20:21:45.647Z,96.53
2019-01-26T20:24:15.753Z,95.63
2019-01-26T20:27:02.576Z,81.73
2019-01-26T20:29:53.902Z,81.10
2019-01-26T20:32:40.582Z,80.37
2019-01-26T20:35:30.567Z,90.13
2019-01-26T20:38:32.726Z,92.17
2019-01-26T20:44:28.686Z,91.77
2019-01-26T20:47:15.730Z,81.57
2019-01-26T20:49:57.292Z,75.83
2019-01-26T20:52:28.758Z,82.60
2019-01-26T20:55:00.606Z,85.27
2019-01-26T20:57:34.633Z,77.40
2019-01-26T21:00:08.534Z,76.27
2019-01-26T21:02:39.033Z,69.60
2019-01-26T21:05:09.890Z,69.93
2019-01-26T21:07:40.702Z,64.80
2019-01-26T21:10:13.358Z,69.97
2019-01-26T21:12:43.822Z,72.93
2019-01-26T21:15:14.438Z,64.03
2019-01-26T21:18:04.094Z,99.07
2019-01-26T21:20:38.847Z,69.17
2019-01-26T21:23:14.400Z,68.60
2019-01-26T21:25:47.774Z,82.33
2019-01-26T21:28:21.598Z,68.93
2019-01-26T21:30:51.502Z,68.60
2019-01-26T21:33:21.967Z,77.43
2019-01-26T21:35:52.772Z,85.47
2019-01-26T21:38:23.008Z,77.93
2019-01-26T21:40:53.646Z,81.57
2019-01-26T21:43:27.534Z,79.97
2019-01-26T21:45:57.768Z,72.03
2019-01-26T21:48:27.775Z,74.43
2019-01-26T21:51:01.055Z,71.57
2019-01-26T21:53:33.022Z,68.07
2019-01-26T21:56:03.046Z,64.20
2019-01-26T21:58:38.494Z,61.70
2019-01-26T22:01:08.710Z,62.97
2019-01-26T22:03:39.559Z,60.03
2019-01-26T22:06:09.455Z,67.67
2019-01-26T22:08:39.487Z,63.40
2019-01-26T22:11:10.023Z,63.90
2019-01-26T22:13:40.126Z,60.67
2019-01-26T22:16:10.754Z,62.50
2019-01-26T22:18:41.480Z,63.57
2019-01-26T22:21:19.113Z,70.33
2019-01-26T22:23:48.994Z,68.37
2019-01-26T22:26:20.686Z,77.73
2019-01-26T22:28:57.574Z,66.47
2019-01-26T22:31:30.712Z,78.93
2019-01-26T22:34:22.442Z,76.67
2019-01-26T22:49:34.314Z,76.47
2019-01-26T22:52:08.027Z,77.67
2019-01-26T22:54:39.794Z,75.17
2019-01-26T22:57:09.914Z,76.87
2019-01-26T22:59:39.802Z,72.40
2019-01-26T23:02:10.567Z,70.00
2019-01-26T23:05:01.673Z,65.77
2019-01-26T23:07:51.742Z,68.93
2019-01-26T23:10:40.074Z,65.63
2019-01-26T23:13:19.726Z,57.47
2019-01-26T23:16:08.274Z,54.47
2019-01-26T23:18:43.301Z,51.50
2019-01-26T23:21:32.474Z,56.70
2019-01-26T23:24:12.934Z,57.37
2019-01-26T23:27:01.693Z,68.83
2019-01-26T23:29:43.394Z,55.73
2019-01-26T23:32:13.598Z,57.97
2019-01-26T23:34:43.315Z,62.17
2019-01-26T23:37:13.426Z,53.13
2019-01-26T23:39:43.667Z,57.30
2019-01-26T23:42:13.467Z,57.83
2019-01-26T23:44:43.787Z,55.80
2019-01-26T23:47:13.494Z,53.67
2019-01-26T23:49:43.614Z,57.30
2019-01-26T23:52:13.426Z,58.17
2019-01-26T23:54:43.234Z,52.33
2019-01-26T23:57:13.354Z,61.37
2019-01-26T23:59:43.266Z,68.07
